Time;durP1;ratioP1;P1;durP2;ratioP2;P2;SDS_P1;SDS_P2;PMS_P1;PMS_P2;Temp;Humidity;BMP_temperature;BMP_pressure;BME280_temperature;BME280_humidity;BME280_pressure;Samples;Min_cycle;Max_cycle;Signal;HPM_P1;HPM_P2
2023/05/13 00:02:15;;;;;;;12.73;8.88;;;;;;;;;;5013077;28;20065;-72
2023/05/13 00:04:41;;;;;;;11.52;6.90;;;;;;;;;;5013745;28;20041;-72
2023/05/13 00:07:07;;;;;;;10.85;7.38;;;;;;;;;;5027642;28;20046;-73
2023/05/13 00:09:33;;;;;;;12.30;7.38;;;;;;;;;;5020604;28;20068;-72
2023/05/13 00:12:00;;;;;;;16.02;7.20;;;;;;;;;;5027765;28;20190;-72
2023/05/13 00:14:26;;;;;;;13.05;7.50;;;;;;;;;;5025163;28;20113;-72
2023/05/13 00:16:52;;;;;;;12.68;7.53;;;;;;;;;;5044910;28;20427;-72
2023/05/13 00:19:19;;;;;;;11.68;6.53;;;;;;;;;;5010905;28;20034;-72
2023/05/13 00:21:45;;;;;;;12.30;6.78;;;;;;;;;;5035560;28;20034;-72
2023/05/13 00:24:11;;;;;;;10.65;7.18;;;;;;;;;;5030174;28;20107;-72
2023/05/13 00:26:37;;;;;;;7.35;6.18;;;;;;;;;;5017176;28;20048;-71
2023/05/13 00:29:04;;;;;;;20.10;6.00;;;;;;;;;;5011516;28;20044;-73
2023/05/13 00:31:30;;;;;;;12.48;5.80;;;;;;;;;;5044757;28;20084;-71
2023/05/13 00:33:56;;;;;;;12.75;6.50;;;;;;;;;;5043711;28;20049;-71
2023/05/13 00:36:23;;;;;;;13.07;6.68;;;;;;;;;;5021049;28;20025;-71
2023/05/13 00:38:49;;;;;;;7.53;6.07;;;;;;;;;;5013639;28;20104;-72
2023/05/13 00:41:15;;;;;;;10.07;6.47;;;;;;;;;;5018667;28;20087;-72
2023/05/13 00:43:41;;;;;;;12.25;6.47;;;;;;;;;;5030111;28;20048;-72
2023/05/13 00:46:07;;;;;;;9.40;5.80;;;;;;;;;;5027400;28;20064;-72
2023/05/13 00:48:33;;;;;;;9.05;6.20;;;;;;;;;;5010165;28;20092;-72
2023/05/13 00:51:00;;;;;;;10.38;5.97;;;;;;;;;;5011100;28;20014;-72
2023/05/13 00:53:26;;;;;;;8.55;6.25;;;;;;;;;;5010197;28;20033;-73
2023/05/13 00:55:52;;;;;;;10.55;5.97;;;;;;;;;;5019606;28;20041;-72
2023/05/13 00:58:18;;;;;;;9.82;6.55;;;;;;;;;;5009178;28;20054;-72
2023/05/13 01:00:55;;;;;;;13.10;6.68;;;;;;;;;;5026730;28;20026;-72
2023/05/13 01:03:33;;;;;;;10.52;7.20;;;;;;;;;;5011577;28;20037;-72
2023/05/13 01:06:05;;;;;;;15.15;7.30;;;;;;;;;;5013007;28;20169;-72
2023/05/13 01:08:37;;;;;;;10.07;7.03;;;;;;;;;;5012113;28;20045;-73
2023/05/13 01:11:06;;;;;;;13.27;7.20;;;;;;;;;;5033338;28;20057;-71
2023/05/13 01:13:35;;;;;;;15.52;7.57;;;;;;;;;;5023123;28;20025;-72
2023/05/13 01:16:11;;;;;;;17.90;8.05;;;;;;;;;;5017394;28;20118;-72
2023/05/13 01:18:40;;;;;;;15.75;7.40;;;;;;;;;;5010122;28;20026;-73
2023/05/13 01:21:07;;;;;;;9.32;7.60;;;;;;;;;;5019259;28;20517;-72
2023/05/13 01:23:33;;;;;;;11.98;8.27;;;;;;;;;;5025771;28;20033;-72
2023/05/13 01:25:59;;;;;;;15.40;9.25;;;;;;;;;;5021830;28;20029;-72
2023/05/13 01:28:26;;;;;;;17.20;9.73;;;;;;;;;;5026094;28;20033;-72
2023/05/13 01:30:55;;;;;;;16.77;9.25;;;;;;;;;;5004092;28;20112;-71
2023/05/13 01:33:22;;;;;;;13.63;9.32;;;;;;;;;;5024408;28;20103;-73
2023/05/13 01:35:49;;;;;;;12.30;9.60;;;;;;;;;;5028687;28;20025;-73
2023/05/13 01:38:17;;;;;;;12.23;9.65;;;;;;;;;;5013686;28;20370;-73
2023/05/13 01:40:48;;;;;;;18.30;10.18;;;;;;;;;;5024931;28;20029;-73
2023/05/13 01:43:14;;;;;;;15.07;9.77;;;;;;;;;;5041026;28;20026;-72
2023/05/13 01:45:41;;;;;;;13.30;10.40;;;;;;;;;;5011328;28;20073;-72
2023/05/13 01:48:07;;;;;;;16.02;10.32;;;;;;;;;;5014998;28;20034;-72
2023/05/13 01:50:41;;;;;;;16.10;12.02;;;;;;;;;;5025288;28;20055;-72
2023/05/13 01:53:08;;;;;;;23.60;11.68;;;;;;;;;;5028687;28;20037;-72
2023/05/13 01:55:35;;;;;;;14.95;11.02;;;;;;;;;;5009001;28;20034;-72
2023/05/13 01:58:03;;;;;;;16.50;11.82;;;;;;;;;;5027628;28;20034;-71
2023/05/13 02:00:30;;;;;;;17.13;12.13;;;;;;;;;;5023589;28;20025;-72
2023/05/13 02:02:56;;;;;;;17.23;12.70;;;;;;;;;;5051363;28;20029;-72
2023/05/13 02:05:23;;;;;;;19.85;12.85;;;;;;;;;;5009576;28;20033;-73
2023/05/13 02:07:50;;;;;;;21.25;13.05;;;;;;;;;;5024981;28;20050;-73
2023/05/13 02:10:16;;;;;;;18.02;13.77;;;;;;;;;;5014830;28;20044;-72
2023/05/13 02:12:42;;;;;;;18.33;14.50;;;;;;;;;;5023289;28;20057;-72
2023/05/13 02:15:08;;;;;;;17.80;13.80;;;;;;;;;;5025432;28;20044;-73
2023/05/13 02:17:35;;;;;;;18.73;14.05;;;;;;;;;;5024726;28;20093;-73
2023/05/13 02:20:02;;;;;;;23.30;14.38;;;;;;;;;;5031646;28;20044;-72
2023/05/13 02:22:28;;;;;;;21.20;15.77;;;;;;;;;;5045805;28;20122;-72
2023/05/13 02:24:55;;;;;;;23.80;16.15;;;;;;;;;;5018641;28;20189;-72
2023/05/13 02:27:22;;;;;;;21.83;15.60;;;;;;;;;;5024823;28;20041;-72
2023/05/13 02:29:48;;;;;;;22.13;15.68;;;;;;;;;;5017267;28;20022;-72
2023/05/13 02:32:15;;;;;;;20.48;16.80;;;;;;;;;;5029350;28;20034;-71
2023/05/13 02:34:41;;;;;;;22.10;18.23;;;;;;;;;;5012890;28;20055;-72
2023/05/13 02:37:07;;;;;;;21.77;19.15;;;;;;;;;;5045195;28;20038;-72
2023/05/13 02:39:40;;;;;;;26.42;19.35;;;;;;;;;;5015480;28;20072;-71
2023/05/13 02:42:07;;;;;;;27.45;20.02;;;;;;;;;;5006566;28;20080;-71
2023/05/13 02:44:33;;;;;;;27.50;19.25;;;;;;;;;;5018530;28;20045;-73
2023/05/13 02:47:00;;;;;;;22.92;19.73;;;;;;;;;;5019032;28;20038;-72
2023/05/13 02:49:26;;;;;;;27.63;21.83;;;;;;;;;;5047307;28;20033;-71
2023/05/13 02:51:54;;;;;;;28.63;23.40;;;;;;;;;;5008559;28;20030;-74
2023/05/13 02:54:25;;;;;;;27.52;23.35;;;;;;;;;;5025921;28;20069;-73
2023/05/13 02:56:51;;;;;;;34.58;24.80;;;;;;;;;;5023956;28;20056;-72
2023/05/13 02:59:17;;;;;;;30.88;25.13;;;;;;;;;;5010749;28;20041;-73
2023/05/13 03:01:43;;;;;;;41.38;26.52;;;;;;;;;;5041918;28;20061;-73
2023/05/13 03:04:10;;;;;;;32.30;25.95;;;;;;;;;;5027282;28;20113;-73
2023/05/13 03:06:36;;;;;;;32.95;26.45;;;;;;;;;;5010468;28;20089;-70
2023/05/13 03:09:02;;;;;;;38.60;27.92;;;;;;;;;;5010455;28;20041;-72
2023/05/13 03:11:28;;;;;;;32.92;27.00;;;;;;;;;;5018726;28;20042;-72
2023/05/13 03:13:54;;;;;;;32.72;25.83;;;;;;;;;;5044757;28;20041;-72
2023/05/13 03:16:21;;;;;;;33.60;25.60;;;;;;;;;;5023332;28;20057;-72
2023/05/13 03:18:47;;;;;;;32.83;26.65;;;;;;;;;;5023220;28;20030;-72
2023/05/13 03:21:14;;;;;;;37.33;26.70;;;;;;;;;;5022154;28;20124;-72
2023/05/13 03:23:40;;;;;;;42.72;28.23;;;;;;;;;;5024208;28;20363;-71
2023/05/13 03:26:07;;;;;;;40.33;27.52;;;;;;;;;;5019265;28;20026;-72
2023/05/13 03:28:33;;;;;;;39.55;28.63;;;;;;;;;;5020356;28;20535;-72
2023/05/13 03:31:00;;;;;;;36.63;28.70;;;;;;;;;;5031008;28;20515;-71
2023/05/13 03:33:28;;;;;;;37.72;28.50;;;;;;;;;;5015771;28;20038;-72
2023/05/13 03:35:55;;;;;;;40.33;28.60;;;;;;;;;;5026870;28;20099;-71
2023/05/13 03:38:26;;;;;;;38.08;29.83;;;;;;;;;;5010080;28;20519;-71
2023/05/13 03:40:53;;;;;;;38.22;28.33;;;;;;;;;;5048461;28;20017;-72
2023/05/13 03:43:19;;;;;;;39.97;29.45;;;;;;;;;;5015097;28;20109;-71
2023/05/13 03:45:51;;;;;;;43.40;29.38;;;;;;;;;;5028159;28;20351;-71
2023/05/13 03:48:20;;;;;;;37.22;28.02;;;;;;;;;;5031343;28;20106;-71
2023/05/13 03:50:46;;;;;;;37.67;29.20;;;;;;;;;;5058380;28;20026;-71
2023/05/13 03:53:14;;;;;;;38.45;29.15;;;;;;;;;;5014678;28;20080;-71
2023/05/13 03:55:41;;;;;;;43.03;30.02;;;;;;;;;;5022411;28;20026;-72
2023/05/13 03:58:12;;;;;;;41.40;31.10;;;;;;;;;;5028111;28;20136;-71
2023/05/13 04:00:38;;;;;;;;;;;;;;;;;;5014316;28;20056;-72
2023/05/13 04:03:04;;;;;;;39.75;29.60;;;;;;;;;;5028108;28;19918;-72
2023/05/13 04:05:31;;;;;;;42.13;30.25;;;;;;;;;;5044840;28;20033;-72
2023/05/13 04:07:57;;;;;;;44.38;30.67;;;;;;;;;;5026482;28;20582;-72
2023/05/13 04:10:23;;;;;;;41.00;28.52;;;;;;;;;;5033747;28;20030;-73
2023/05/13 04:12:50;;;;;;;42.65;30.77;;;;;;;;;;5028972;28;20025;-72
2023/05/13 04:15:16;;;;;;;40.50;29.88;;;;;;;;;;5058873;28;20060;-72
2023/05/13 04:17:42;;;;;;;43.28;31.48;;;;;;;;;;5044157;28;20034;-72
2023/05/13 04:20:09;;;;;;;45.42;30.33;;;;;;;;;;5012802;28;20053;-72
2023/05/13 04:22:35;;;;;;;48.45;31.13;;;;;;;;;;5061496;28;20043;-72
2023/05/13 04:25:01;;;;;;;38.22;30.02;;;;;;;;;;5021151;28;20030;-72
2023/05/13 04:27:27;;;;;;;40.22;30.15;;;;;;;;;;5029499;28;20053;-73
2023/05/13 04:30:01;;;;;;;41.80;29.98;;;;;;;;;;5023986;28;20125;-71
2023/05/13 04:32:30;;;;;;;33.97;27.20;;;;;;;;;;5044216;28;20436;-71
2023/05/13 04:34:56;;;;;;;32.17;25.55;;;;;;;;;;5027041;28;20165;-72
2023/05/13 04:37:25;;;;;;;31.67;24.52;;;;;;;;;;5023343;28;20553;-72
2023/05/13 04:39:54;;;;;;;34.30;23.50;;;;;;;;;;5016171;28;20034;-72
2023/05/13 04:42:23;;;;;;;32.15;23.27;;;;;;;;;;5028240;28;20037;-73
2023/05/13 04:44:49;;;;;;;27.50;22.38;;;;;;;;;;5045081;28;20053;-76
2023/05/13 04:47:16;;;;;;;28.52;21.77;;;;;;;;;;5060154;28;20048;-73
2023/05/13 04:49:43;;;;;;;25.63;20.10;;;;;;;;;;5012711;28;20090;-73
2023/05/13 04:52:11;;;;;;;28.52;21.70;;;;;;;;;;5012954;28;20041;-73
2023/05/13 04:54:38;;;;;;;29.23;21.40;;;;;;;;;;5030174;28;20038;-72
2023/05/13 04:57:05;;;;;;;29.52;20.92;;;;;;;;;;5032200;28;20170;-72
2023/05/13 04:59:32;;;;;;;31.40;20.83;;;;;;;;;;5020601;28;20034;-72
2023/05/13 05:01:58;;;;;;;25.98;18.98;;;;;;;;;;5038579;28;20033;-73
2023/05/13 05:04:26;;;;;;;23.02;19.55;;;;;;;;;;5011909;28;20034;-72
2023/05/13 05:06:53;;;;;;;30.50;19.60;;;;;;;;;;5025563;28;20395;-72
2023/05/13 05:09:20;;;;;;;25.98;18.63;;;;;;;;;;5012030;28;20034;-73
2023/05/13 05:11:49;;;;;;;24.40;18.65;;;;;;;;;;4997823;28;20037;-72
2023/05/13 05:14:17;;;;;;;23.88;18.48;;;;;;;;;;5028121;28;20033;-73
2023/05/13 05:16:43;;;;;;;22.63;17.55;;;;;;;;;;5035541;28;20029;-73
2023/05/13 05:19:10;;;;;;;21.60;17.95;;;;;;;;;;5041382;28;20033;-72
2023/05/13 05:21:37;;;;;;;26.75;17.50;;;;;;;;;;5020171;28;20041;-72
2023/05/13 05:24:04;;;;;;;27.70;17.23;;;;;;;;;;5008555;28;20084;-72
2023/05/13 05:26:30;;;;;;;22.48;16.90;;;;;;;;;;5021447;28;20022;-72
2023/05/13 05:28:57;;;;;;;22.10;17.25;;;;;;;;;;5045723;28;20399;-72
2023/05/13 05:31:23;;;;;;;23.17;15.30;;;;;;;;;;5023060;28;20072;-73
2023/05/13 05:33:49;;;;;;;24.63;15.80;;;;;;;;;;5025683;28;20033;-72
2023/05/13 05:36:16;;;;;;;19.42;14.88;;;;;;;;;;5024890;28;20042;-72
2023/05/13 05:38:42;;;;;;;21.38;14.90;;;;;;;;;;5025725;28;20046;-72
2023/05/13 05:41:09;;;;;;;21.65;15.20;;;;;;;;;;5025150;28;20149;-72
2023/05/13 05:43:36;;;;;;;20.75;15.05;;;;;;;;;;5031244;28;20092;-72
2023/05/13 05:46:02;;;;;;;21.15;13.10;;;;;;;;;;5037057;28;20033;-72
2023/05/13 05:48:28;;;;;;;17.02;11.98;;;;;;;;;;5026031;28;20022;-71
2023/05/13 05:50:55;;;;;;;15.60;11.13;;;;;;;;;;5018712;28;20022;-72
2023/05/13 05:53:29;;;;;;;15.15;11.50;;;;;;;;;;5028118;28;20025;-72
2023/05/13 05:55:55;;;;;;;15.20;11.20;;;;;;;;;;5016648;28;20116;-73
2023/05/13 05:58:21;;;;;;;13.98;10.05;;;;;;;;;;5007727;28;20351;-72
2023/05/13 06:00:48;;;;;;;22.73;10.27;;;;;;;;;;5000868;28;20030;-72
2023/05/13 06:03:14;;;;;;;11.90;9.30;;;;;;;;;;5018693;28;20521;-73
2023/05/13 06:05:40;;;;;;;13.82;9.52;;;;;;;;;;5044690;28;20038;-74
2023/05/13 06:08:06;;;;;;;18.45;9.18;;;;;;;;;;5018385;28;20053;-73
2023/05/13 06:10:32;;;;;;;14.38;8.43;;;;;;;;;;5047343;28;20040;-72
2023/05/13 06:12:59;;;;;;;15.93;9.00;;;;;;;;;;5020128;28;20041;-71
2023/05/13 06:15:25;;;;;;;15.98;8.30;;;;;;;;;;5019823;28;20122;-72
2023/05/13 06:17:51;;;;;;;17.83;8.27;;;;;;;;;;5031187;28;20033;-72
2023/05/13 06:20:17;;;;;;;15.20;8.63;;;;;;;;;;5015684;28;20108;-72
2023/05/13 06:22:43;;;;;;;14.45;8.07;;;;;;;;;;5017195;28;20478;-72
2023/05/13 06:25:10;;;;;;;13.82;8.10;;;;;;;;;;5000295;28;20041;-73
2023/05/13 06:27:36;;;;;;;13.27;7.82;;;;;;;;;;5025977;28;20125;-72
2023/05/13 06:30:02;;;;;;;14.68;7.95;;;;;;;;;;5018535;28;20160;-74
2023/05/13 06:32:28;;;;;;;11.88;7.45;;;;;;;;;;5041559;28;20034;-71
2023/05/13 06:34:54;;;;;;;14.35;7.80;;;;;;;;;;5015020;28;20025;-72
2023/05/13 06:37:21;;;;;;;13.38;8.60;;;;;;;;;;5013718;28;20033;-71
2023/05/13 06:39:47;;;;;;;13.45;8.00;;;;;;;;;;5013576;28;20034;-74
2023/05/13 06:42:14;;;;;;;14.75;7.90;;;;;;;;;;5052342;28;20041;-73
2023/05/13 06:44:44;;;;;;;12.47;7.63;;;;;;;;;;5043530;28;20184;-72
2023/05/13 06:47:14;;;;;;;15.57;8.32;;;;;;;;;;5031893;28;20025;-73
2023/05/13 06:49:41;;;;;;;14.82;7.55;;;;;;;;;;5036933;28;20112;-73
2023/05/13 06:52:08;;;;;;;17.55;7.22;;;;;;;;;;5031280;28;20037;-74
2023/05/13 06:54:34;;;;;;;15.88;8.02;;;;;;;;;;5019466;28;20188;-73
2023/05/13 06:57:00;;;;;;;13.95;7.95;;;;;;;;;;5028794;28;20030;-73
2023/05/13 06:59:26;;;;;;;11.85;7.97;;;;;;;;;;5030407;28;20103;-73
2023/05/13 07:01:53;;;;;;;9.02;7.50;;;;;;;;;;5028508;28;20398;-73
2023/05/13 07:04:19;;;;;;;17.45;8.07;;;;;;;;;;5061924;28;20046;-73
2023/05/13 07:06:45;;;;;;;13.88;7.32;;;;;;;;;;5028763;28;20080;-73
2023/05/13 07:09:11;;;;;;;15.75;7.53;;;;;;;;;;5033403;28;20117;-72
2023/05/13 07:11:38;;;;;;;16.67;7.50;;;;;;;;;;5061761;28;20547;-72
2023/05/13 07:14:04;;;;;;;11.55;7.60;;;;;;;;;;5030307;28;20034;-74
2023/05/13 07:16:30;;;;;;;12.15;7.78;;;;;;;;;;5020927;28;20045;-73
2023/05/13 07:18:56;;;;;;;13.02;7.25;;;;;;;;;;5056507;28;20459;-73
2023/05/13 07:21:22;;;;;;;13.32;7.13;;;;;;;;;;5055050;28;20116;-73
2023/05/13 07:23:48;;;;;;;17.90;7.13;;;;;;;;;;5061715;28;20124;-73
2023/05/13 07:26:14;;;;;;;14.38;7.07;;;;;;;;;;5013579;28;20034;-74
2023/05/13 07:28:40;;;;;;;14.35;7.88;;;;;;;;;;5012980;28;20026;-73
2023/05/13 07:31:06;;;;;;;17.45;7.53;;;;;;;;;;5012120;28;20088;-74
2023/05/13 07:33:33;;;;;;;14.75;7.63;;;;;;;;;;5013245;28;20022;-73
2023/05/13 07:35:59;;;;;;;11.10;7.25;;;;;;;;;;5025060;28;20056;-73
2023/05/13 07:38:25;;;;;;;14.80;8.63;;;;;;;;;;5050955;28;20718;-74
2023/05/13 07:40:51;;;;;;;12.10;8.07;;;;;;;;;;5030808;28;20118;-73
2023/05/13 07:43:22;;;;;;;12.18;7.82;;;;;;;;;;5017782;28;20104;-72
2023/05/13 07:45:49;;;;;;;13.68;7.82;;;;;;;;;;5042884;28;20180;-73
2023/05/13 07:48:16;;;;;;;16.58;7.68;;;;;;;;;;5029522;28;20021;-73
2023/05/13 07:50:43;;;;;;;15.35;7.25;;;;;;;;;;5034088;28;20030;-72
2023/05/13 07:53:09;;;;;;;22.40;8.32;;;;;;;;;;5026497;28;20040;-74
2023/05/13 07:55:35;;;;;;;16.48;8.10;;;;;;;;;;5029137;28;20026;-73
2023/05/13 07:58:02;;;;;;;15.95;7.50;;;;;;;;;;5044386;28;20037;-75
2023/05/13 08:00:28;;;;;;;13.90;7.80;;;;;;;;;;5029034;28;20037;-73
2023/05/13 08:02:54;;;;;;;13.82;7.50;;;;;;;;;;5024614;28;20051;-73
2023/05/13 08:05:21;;;;;;;10.68;7.53;;;;;;;;;;5032764;28;20115;-73
2023/05/13 08:07:47;;;;;;;12.63;8.00;;;;;;;;;;5031940;28;20050;-74
2023/05/13 08:10:13;;;;;;;15.00;7.90;;;;;;;;;;5047933;28;20036;-73
2023/05/13 08:12:40;;;;;;;12.35;7.47;;;;;;;;;;5029282;28;20482;-73
2023/05/13 08:15:06;;;;;;;16.63;8.57;;;;;;;;;;5030257;28;20033;-73
2023/05/13 08:17:33;;;;;;;10.75;7.60;;;;;;;;;;5018303;28;20029;-73
2023/05/13 08:20:00;;;;;;;10.50;7.90;;;;;;;;;;5024754;28;20048;-72
2023/05/13 08:22:26;;;;;;;11.20;7.80;;;;;;;;;;5024929;28;20049;-72
2023/05/13 08:24:53;;;;;;;11.30;7.90;;;;;;;;;;5051671;28;20091;-73
2023/05/13 08:27:19;;;;;;;13.23;7.45;;;;;;;;;;5022904;28;20072;-73
2023/05/13 08:29:45;;;;;;;12.95;7.63;;;;;;;;;;5025941;28;20035;-73
2023/05/13 08:32:11;;;;;;;9.70;7.40;;;;;;;;;;5028502;28;20026;-73
2023/05/13 08:34:38;;;;;;;10.93;7.68;;;;;;;;;;5023847;28;20044;-73
2023/05/13 08:37:05;;;;;;;12.50;7.65;;;;;;;;;;5025616;28;20050;-74
2023/05/13 08:39:31;;;;;;;16.63;8.40;;;;;;;;;;5040617;28;20056;-75
2023/05/13 08:41:58;;;;;;;17.48;7.53;;;;;;;;;;5047241;28;20391;-74
2023/05/13 08:44:27;;;;;;;13.35;7.32;;;;;;;;;;5037489;28;20042;-72
2023/05/13 08:46:59;;;;;;;11.48;7.97;;;;;;;;;;5016699;28;20037;-72
2023/05/13 08:49:26;;;;;;;15.05;7.85;;;;;;;;;;5022335;28;20415;-72
2023/05/13 08:51:52;;;;;;;16.63;7.78;;;;;;;;;;5017175;28;20057;-72
2023/05/13 08:54:20;;;;;;;12.30;7.60;;;;;;;;;;5033670;28;20030;-72
2023/05/13 08:56:46;;;;;;;12.02;7.68;;;;;;;;;;5025410;28;20041;-72
2023/05/13 08:59:12;;;;;;;16.17;7.60;;;;;;;;;;5042614;28;20125;-72
2023/05/13 09:01:38;;;;;;;13.02;8.40;;;;;;;;;;5011797;28;20140;-72
2023/05/13 09:04:06;;;;;;;15.60;7.53;;;;;;;;;;5017629;28;20099;-71
2023/05/13 09:06:32;;;;;;;15.43;7.60;;;;;;;;;;5030200;28;20041;-72
2023/05/13 09:08:58;;;;;;;15.05;7.40;;;;;;;;;;5029578;28;20407;-72
2023/05/13 09:11:25;;;;;;;12.90;7.47;;;;;;;;;;5029503;28;20042;-72
2023/05/13 09:13:58;;;;;;;17.02;8.35;;;;;;;;;;5020273;28;20026;-72
2023/05/13 09:16:25;;;;;;;15.05;8.45;;;;;;;;;;5014632;28;20034;-72
2023/05/13 09:18:56;;;;;;;14.32;7.35;;;;;;;;;;5014416;28;20030;-71
2023/05/13 09:21:23;;;;;;;;;;;;;;;;;;5017058;28;20052;-74
2023/05/13 09:23:49;;;;;;;17.33;7.88;;;;;;;;;;5011464;28;19945;-73
2023/05/13 09:26:28;;;;;;;13.23;7.85;;;;;;;;;;5050540;28;20065;-72
2023/05/13 09:29:13;;;;;;;10.95;7.80;;;;;;;;;;5018264;28;20060;-73
2023/05/13 09:31:39;;;;;;;18.58;8.23;;;;;;;;;;5019704;28;20395;-73
2023/05/13 09:34:06;;;;;;;15.00;8.38;;;;;;;;;;5029254;28;20038;-73
2023/05/13 09:36:32;;;;;;;18.15;8.27;;;;;;;;;;5030487;28;20044;-72
2023/05/13 09:38:58;;;;;;;11.35;8.02;;;;;;;;;;5011680;28;20038;-72
2023/05/13 09:41:26;;;;;;;11.95;8.30;;;;;;;;;;5026419;28;20025;-72
2023/05/13 09:43:53;;;;;;;16.15;8.02;;;;;;;;;;5027372;28;20099;-73
2023/05/13 09:46:20;;;;;;;11.93;8.05;;;;;;;;;;5028907;28;20043;-73
2023/05/13 09:48:46;;;;;;;12.13;8.10;;;;;;;;;;5029780;28;20170;-71
2023/05/13 09:51:15;;;;;;;13.35;7.95;;;;;;;;;;5061680;28;20103;-71
2023/05/13 09:53:41;;;;;;;10.20;7.32;;;;;;;;;;5017744;28;20018;-71
2023/05/13 09:56:09;;;;;;;13.68;9.13;;;;;;;;;;5053690;28;20491;-72
2023/05/13 09:58:35;;;;;;;15.65;8.73;;;;;;;;;;5025933;28;20030;-72
2023/05/13 10:01:02;;;;;;;15.85;8.73;;;;;;;;;;5016887;28;20117;-73
2023/05/13 10:03:30;;;;;;;12.77;8.20;;;;;;;;;;5024725;28;20065;-73
2023/05/13 10:05:58;;;;;;;14.85;8.90;;;;;;;;;;5013925;28;20103;-71
2023/05/13 10:08:24;;;;;;;13.50;8.30;;;;;;;;;;5020928;28;20036;-72
2023/05/13 10:10:53;;;;;;;12.93;8.80;;;;;;;;;;5016349;28;20026;-72
2023/05/13 10:13:23;;;;;;;17.13;9.18;;;;;;;;;;5013442;28;20088;-73
2023/05/13 10:15:49;;;;;;;12.82;7.68;;;;;;;;;;5016102;28;20408;-71
2023/05/13 10:18:16;;;;;;;15.25;8.48;;;;;;;;;;5018031;28;20034;-73
2023/05/13 10:20:42;;;;;;;12.18;8.30;;;;;;;;;;5018016;28;20044;-72
2023/05/13 10:23:09;;;;;;;12.07;8.38;;;;;;;;;;5015764;28;20049;-73
2023/05/13 10:25:36;;;;;;;12.45;8.00;;;;;;;;;;5013121;28;20141;-73
2023/05/13 10:28:03;;;;;;;18.10;9.10;;;;;;;;;;5012898;28;20041;-72
2023/05/13 10:30:31;;;;;;;13.50;8.95;;;;;;;;;;4994457;28;20423;-72
2023/05/13 10:32:58;;;;;;;17.85;7.90;;;;;;;;;;4992490;28;20077;-72
2023/05/13 10:35:27;;;;;;;14.00;8.88;;;;;;;;;;5004510;28;20129;-72
2023/05/13 10:38:06;;;;;;;17.13;8.30;;;;;;;;;;5001290;28;20080;-73
2023/05/13 10:40:41;;;;;;;12.63;7.82;;;;;;;;;;5000859;28;20045;-73
2023/05/13 10:43:07;;;;;;;14.82;8.23;;;;;;;;;;4992427;28;20031;-72
2023/05/13 10:45:33;;;;;;;15.13;8.30;;;;;;;;;;5003444;28;20029;-73
2023/05/13 10:48:05;;;;;;;16.90;8.48;;;;;;;;;;4994149;28;20034;-73
2023/05/13 10:50:31;;;;;;;13.38;8.38;;;;;;;;;;4997761;28;20045;-73
2023/05/13 10:52:58;;;;;;;10.70;8.27;;;;;;;;;;5003593;28;20535;-73
2023/05/13 10:55:26;;;;;;;19.60;8.88;;;;;;;;;;5003004;28;20113;-72
2023/05/13 10:58:10;;;;;;;18.75;8.77;;;;;;;;;;4995265;28;20034;-72
2023/05/13 11:00:38;;;;;;;17.70;8.43;;;;;;;;;;5004263;28;20041;-73
2023/05/13 11:03:19;;;;;;;16.15;7.68;;;;;;;;;;5005500;28;20034;-77
2023/05/13 11:05:46;;;;;;;21.77;10.60;;;;;;;;;;5008294;28;20045;-73
2023/05/13 11:08:32;;;;;;;20.17;10.27;;;;;;;;;;5009863;28;20078;-73
2023/05/13 11:10:58;;;;;;;12.38;8.32;;;;;;;;;;5005002;28;20459;-72
2023/05/13 11:13:34;;;;;;;15.15;8.13;;;;;;;;;;5006002;28;20120;-72
2023/05/13 11:16:00;;;;;;;13.65;8.20;;;;;;;;;;5016090;28;20037;-71
2023/05/13 11:18:30;;;;;;;13.55;8.77;;;;;;;;;;5004006;28;20053;-73
2023/05/13 11:21:01;;;;;;;19.67;11.88;;;;;;;;;;5002407;28;20029;-72
2023/05/13 11:23:27;;;;;;;11.82;8.27;;;;;;;;;;4995085;28;20471;-72
2023/05/13 11:26:10;;;;;;;11.43;7.82;;;;;;;;;;4997825;28;20085;-72
2023/05/13 11:28:55;;;;;;;11.02;8.18;;;;;;;;;;5000364;28;20048;-73
2023/05/13 11:31:22;;;;;;;13.35;7.57;;;;;;;;;;5003062;28;20388;-73
2023/05/13 11:34:15;;;;;;;11.30;7.47;;;;;;;;;;4998388;28;20376;-74
2023/05/13 11:36:43;;;;;;;15.20;7.72;;;;;;;;;;5003280;28;20136;-75
2023/05/13 11:39:21;;;;;;;15.95;7.88;;;;;;;;;;5004755;28;20029;-73
2023/05/13 11:41:48;;;;;;;16.90;8.57;;;;;;;;;;5008970;28;20036;-72
2023/05/13 11:44:16;;;;;;;15.60;8.10;;;;;;;;;;5016312;28;20037;-74
2023/05/13 11:47:08;;;;;;;13.75;7.55;;;;;;;;;;4996188;28;20480;-74
2023/05/13 11:49:38;;;;;;;11.27;6.97;;;;;;;;;;5014192;28;20037;-72
2023/05/13 11:52:04;;;;;;;19.50;7.27;;;;;;;;;;5009146;28;20368;-72
2023/05/13 11:54:31;;;;;;;14.27;7.57;;;;;;;;;;5001192;28;20655;-73
2023/05/13 11:56:57;;;;;;;13.52;7.30;;;;;;;;;;4997929;28;20034;-72
2023/05/13 11:59:24;;;;;;;13.55;7.95;;;;;;;;;;4988064;28;20040;-72
2023/05/13 12:02:00;;;;;;;17.48;7.43;;;;;;;;;;4997924;28;20100;-71
2023/05/13 12:04:32;;;;;;;13.77;6.80;;;;;;;;;;4997276;28;20373;-72
2023/05/13 12:06:58;;;;;;;16.20;7.35;;;;;;;;;;5015761;28;20046;-73
2023/05/13 12:09:25;;;;;;;12.50;7.38;;;;;;;;;;5008685;28;20073;-72
2023/05/13 12:11:51;;;;;;;17.42;8.30;;;;;;;;;;5004784;28;20080;-72
2023/05/13 12:14:18;;;;;;;11.75;7.38;;;;;;;;;;5003983;28;20100;-73
2023/05/13 12:16:45;;;;;;;10.38;6.72;;;;;;;;;;4981149;28;20030;-73
2023/05/13 12:19:11;;;;;;;14.73;7.25;;;;;;;;;;5010975;28;20026;-71
2023/05/13 12:21:37;;;;;;;10.07;6.45;;;;;;;;;;5003771;28;20048;-73
2023/05/13 12:24:17;;;;;;;13.95;6.85;;;;;;;;;;5009712;28;20099;-72
2023/05/13 12:26:43;;;;;;;25.90;8.35;;;;;;;;;;5001537;28;20128;-75
2023/05/13 12:29:09;;;;;;;12.13;7.28;;;;;;;;;;5006528;28;20048;-72
2023/05/13 12:31:35;;;;;;;15.98;7.93;;;;;;;;;;5014663;28;20222;-73
2023/05/13 12:34:02;;;;;;;13.70;7.90;;;;;;;;;;5005239;28;20052;-72
2023/05/13 12:36:34;;;;;;;12.88;7.28;;;;;;;;;;4996673;28;20081;-73
2023/05/13 12:39:01;;;;;;;12.43;6.72;;;;;;;;;;4995411;28;20049;-73
2023/05/13 12:41:35;;;;;;;12.13;6.60;;;;;;;;;;4995400;28;20030;-73
2023/05/13 12:44:01;;;;;;;13.98;7.22;;;;;;;;;;5005229;28;20041;-73
2023/05/13 12:46:28;;;;;;;11.18;6.70;;;;;;;;;;4980552;28;20021;-73
2023/05/13 12:48:58;;;;;;;15.20;7.32;;;;;;;;;;5002908;28;20018;-72
2023/05/13 12:51:25;;;;;;;13.32;7.20;;;;;;;;;;5004670;28;20030;-73
2023/05/13 12:53:53;;;;;;;11.77;8.00;;;;;;;;;;4996554;28;20023;-73
2023/05/13 12:56:22;;;;;;;16.40;8.40;;;;;;;;;;5014372;28;20030;-73
2023/05/13 12:58:49;;;;;;;11.93;7.93;;;;;;;;;;5011281;28;20108;-74
2023/05/13 13:01:16;;;;;;;10.02;6.75;;;;;;;;;;5007925;28;20122;-73
2023/05/13 13:03:42;;;;;;;19.17;8.40;;;;;;;;;;5007660;28;20104;-73
2023/05/13 13:06:09;;;;;;;20.33;7.32;;;;;;;;;;5009304;28;20557;-73
2023/05/13 13:08:35;;;;;;;15.70;7.85;;;;;;;;;;4998695;28;20061;-74
2023/05/13 13:11:03;;;;;;;12.82;7.50;;;;;;;;;;5008229;28;20038;-72
2023/05/13 13:13:29;;;;;;;9.85;7.13;;;;;;;;;;5007469;28;20031;-73
2023/05/13 13:15:56;;;;;;;15.35;7.72;;;;;;;;;;5006759;28;20107;-73
2023/05/13 13:18:23;;;;;;;15.00;7.85;;;;;;;;;;5016919;28;20065;-72
2023/05/13 13:20:50;;;;;;;12.57;8.15;;;;;;;;;;5007719;28;20410;-72
2023/05/13 13:23:16;;;;;;;12.52;7.80;;;;;;;;;;5005973;28;20037;-73
2023/05/13 13:25:43;;;;;;;14.15;8.10;;;;;;;;;;5007966;28;20124;-74
2023/05/13 13:28:09;;;;;;;17.42;8.32;;;;;;;;;;5005742;28;20096;-73
2023/05/13 13:30:36;;;;;;;13.35;7.95;;;;;;;;;;4987924;28;20408;-73
2023/05/13 13:33:02;;;;;;;10.88;7.53;;;;;;;;;;5006797;28;20049;-73
2023/05/13 13:35:28;;;;;;;11.38;7.53;;;;;;;;;;5004406;28;20030;-73
2023/05/13 13:37:54;;;;;;;23.38;8.43;;;;;;;;;;5005650;28;20025;-72
2023/05/13 13:40:21;;;;;;;19.08;8.75;;;;;;;;;;5003778;28;20084;-72
2023/05/13 13:42:47;;;;;;;12.35;7.95;;;;;;;;;;5013469;28;20037;-71
2023/05/13 13:45:13;;;;;;;19.15;8.30;;;;;;;;;;5007455;28;20034;-72
2023/05/13 13:47:40;;;;;;;13.68;7.30;;;;;;;;;;5016037;28;20266;-72
2023/05/13 13:50:06;;;;;;;14.13;7.18;;;;;;;;;;5008330;28;20107;-73
2023/05/13 13:52:32;;;;;;;16.45;8.02;;;;;;;;;;5001239;28;20557;-74
2023/05/13 13:54:59;;;;;;;12.88;7.70;;;;;;;;;;5004608;28;20141;-73
2023/05/13 13:57:25;;;;;;;11.30;8.05;;;;;;;;;;5032012;28;20117;-74
2023/05/13 13:59:51;;;;;;;14.75;7.93;;;;;;;;;;5011198;28;20049;-72
2023/05/13 14:02:17;;;;;;;13.73;8.00;;;;;;;;;;5006161;28;20042;-72
2023/05/13 14:04:45;;;;;;;13.25;7.72;;;;;;;;;;5003524;28;20034;-73
2023/05/13 14:07:11;;;;;;;11.80;7.03;;;;;;;;;;5004259;28;20042;-72
2023/05/13 14:09:38;;;;;;;14.60;7.40;;;;;;;;;;5033838;28;20027;-73
2023/05/13 14:12:04;;;;;;;12.38;7.15;;;;;;;;;;5003583;28;20036;-72
2023/05/13 14:14:30;;;;;;;11.00;7.18;;;;;;;;;;5000207;28;20251;-73
2023/05/13 14:16:57;;;;;;;13.80;7.60;;;;;;;;;;4996624;28;20026;-72
2023/05/13 14:19:23;;;;;;;13.55;7.50;;;;;;;;;;5005413;28;20080;-74
2023/05/13 14:21:49;;;;;;;14.60;7.93;;;;;;;;;;4999461;28;20033;-72
2023/05/13 14:24:15;;;;;;;14.40;8.07;;;;;;;;;;4996637;28;20443;-72
2023/05/13 14:26:41;;;;;;;17.45;7.75;;;;;;;;;;4989004;28;20087;-73
2023/05/13 14:29:07;;;;;;;12.80;7.20;;;;;;;;;;5002180;28;20334;-72